createdAt,value
2024-02-08T00:01:31.205Z,2.49
2024-02-08T00:03:59.025Z,2.54
2024-02-08T00:06:26.956Z,2.47
2024-02-08T00:08:55.179Z,2.47
2024-02-08T00:11:22.947Z,2.40
2024-02-08T00:13:50.453Z,2.37
2024-02-08T00:16:18.052Z,2.35
2024-02-08T00:18:48.366Z,2.34
2024-02-08T00:21:16.750Z,2.26
2024-02-08T00:23:44.609Z,2.22
2024-02-08T00:26:12.400Z,2.33
2024-02-08T00:28:41.561Z,2.44
2024-02-08T00:31:09.650Z,2.38
2024-02-08T00:33:37.542Z,2.27
2024-02-08T00:36:05.215Z,2.23
2024-02-08T00:38:32.892Z,2.14
2024-02-08T00:41:00.838Z,2.23
2024-02-08T00:43:29.339Z,2.24
2024-02-08T00:45:57.017Z,2.22
2024-02-08T00:48:26.518Z,2.13
2024-02-08T00:50:54.725Z,2.17
2024-02-08T00:53:23.048Z,2.19
2024-02-08T00:55:50.764Z,2.07
2024-02-08T00:58:18.937Z,1.93
2024-02-08T01:00:49.217Z,1.85
2024-02-08T01:03:17.367Z,1.78
2024-02-08T01:05:50.399Z,1.78
2024-02-08T01:08:17.992Z,1.30
2024-02-08T01:10:45.761Z,1.76
2024-02-08T01:13:13.713Z,1.73
2024-02-08T01:15:41.322Z,1.72
2024-02-08T01:18:09.139Z,1.27
2024-02-08T01:20:36.875Z,1.75
2024-02-08T01:23:06.300Z,1.72
2024-02-08T01:25:34.232Z,1.74
2024-02-08T01:28:02.060Z,1.79
2024-02-08T01:30:29.652Z,1.76
2024-02-08T01:32:57.403Z,1.80
2024-02-08T01:35:26.284Z,1.79
2024-02-08T01:37:55.016Z,1.73
2024-02-08T01:40:24.144Z,1.70
2024-02-08T01:42:58.855Z,1.68
2024-02-08T01:45:32.483Z,1.64
2024-02-08T01:48:04.644Z,1.68
2024-02-08T01:50:37.674Z,1.54
2024-02-08T01:53:08.745Z,1.67
2024-02-08T01:55:37.984Z,1.68
2024-02-08T01:58:08.838Z,1.77
2024-02-08T02:00:40.015Z,1.85
2024-02-08T02:03:14.691Z,1.88
2024-02-08T02:05:44.462Z,1.96
2024-02-08T02:08:13.452Z,1.88
2024-02-08T02:10:43.079Z,1.91
2024-02-08T02:13:12.356Z,1.88
2024-02-08T02:15:40.206Z,1.89
2024-02-08T02:18:13.597Z,1.90
2024-02-08T02:20:42.193Z,1.45
2024-02-08T02:23:11.232Z,1.82
2024-02-08T02:25:40.368Z,1.85
2024-02-08T02:28:11.658Z,1.89
2024-02-08T02:30:39.757Z,1.92
2024-02-08T02:33:08.518Z,2.15
2024-02-08T02:35:36.540Z,2.16
2024-02-08T02:38:04.962Z,2.05
2024-02-08T02:40:32.646Z,2.05
2024-02-08T02:43:00.627Z,2.04
2024-02-08T02:45:30.898Z,2.04
2024-02-08T02:47:59.778Z,2.00
2024-02-08T02:50:27.678Z,1.96
2024-02-08T02:52:55.376Z,1.87
2024-02-08T02:55:24.524Z,1.87
2024-02-08T02:57:52.163Z,1.90
2024-02-08T03:00:22.964Z,2.00
2024-02-08T03:02:54.129Z,2.04
2024-02-08T03:05:24.800Z,1.91
2024-02-08T03:07:53.523Z,1.87
2024-02-08T03:10:23.537Z,1.96
2024-02-08T03:12:52.447Z,2.05
2024-02-08T03:15:20.699Z,1.99
2024-02-08T03:17:48.781Z,1.85
2024-02-08T03:20:26.266Z,1.75
2024-02-08T03:22:54.679Z,1.71
2024-02-08T03:25:23.272Z,1.67
2024-02-08T03:27:55.243Z,1.49
2024-02-08T03:30:32.870Z,1.62
2024-02-08T03:33:04.007Z,1.63
2024-02-08T03:35:37.631Z,1.63
2024-02-08T03:38:05.380Z,1.62
2024-02-08T03:40:34.768Z,1.58
2024-02-08T03:43:03.646Z,1.65
2024-02-08T03:45:31.676Z,1.65
2024-02-08T03:48:02.658Z,1.78
2024-02-08T03:50:35.892Z,1.74
2024-02-08T03:53:14.391Z,1.63
2024-02-08T03:55:45.671Z,1.50
2024-02-08T03:58:16.085Z,1.45
2024-02-08T04:00:48.090Z,1.41
2024-02-08T04:03:18.197Z,1.36
2024-02-08T04:05:52.200Z,1.23
2024-02-08T04:08:28.646Z,1.23
2024-02-08T04:10:56.693Z,0.94
2024-02-08T04:13:46.107Z,1.16
2024-02-08T04:16:32.427Z,1.20
2024-02-08T04:19:18.844Z,1.08
2024-02-08T04:22:05.683Z,1.31
2024-02-08T04:24:52.080Z,1.31
2024-02-08T04:27:38.377Z,1.40
2024-02-08T04:30:25.339Z,1.41
2024-02-08T04:33:12.390Z,1.38
2024-02-08T04:35:58.606Z,1.33
2024-02-08T04:38:44.508Z,1.39
2024-02-08T04:41:30.641Z,1.45
2024-02-08T04:44:17.557Z,1.51
2024-02-08T04:47:03.946Z,1.55
2024-02-08T04:49:50.313Z,1.69
2024-02-08T04:52:37.059Z,1.78
2024-02-08T04:55:05.188Z,1.74
2024-02-08T04:57:37.348Z,1.77
2024-02-08T05:00:05.420Z,1.84
2024-02-08T05:02:33.034Z,1.85
2024-02-08T05:05:00.812Z,1.89
2024-02-08T05:07:28.767Z,1.91
2024-02-08T05:09:56.584Z,1.75
2024-02-08T05:12:24.319Z,1.94
2024-02-08T05:14:51.832Z,1.98
2024-02-08T05:17:19.597Z,2.08
2024-02-08T05:19:47.404Z,2.15
2024-02-08T05:22:15.409Z,2.19
2024-02-08T05:24:43.362Z,2.17
2024-02-08T05:27:12.952Z,2.22
2024-02-08T05:29:43.111Z,2.34
2024-02-08T05:32:11.912Z,2.43
2024-02-08T05:34:41.065Z,2.55
2024-02-08T05:37:09.218Z,2.66
2024-02-08T05:39:38.085Z,2.78
2024-02-08T05:42:07.363Z,2.76
2024-02-08T05:44:42.092Z,3.02
2024-02-08T05:47:11.513Z,3.19
2024-02-08T05:49:51.371Z,3.40
2024-02-08T05:52:19.674Z,3.66
2024-02-08T05:54:48.316Z,3.73
2024-02-08T05:57:16.809Z,3.92
2024-02-08T05:59:46.899Z,3.87
2024-02-08T06:02:25.845Z,3.87
2024-02-08T06:05:11.372Z,3.97
2024-02-08T06:07:39.992Z,4.01
2024-02-08T06:10:16.120Z,4.03
2024-02-08T06:12:53.766Z,4.05
2024-02-08T06:15:35.012Z,4.14
2024-02-08T06:18:06.823Z,4.26
2024-02-08T06:20:37.878Z,4.40
2024-02-08T06:23:19.581Z,4.44
2024-02-08T06:26:11.011Z,4.59
2024-02-08T06:28:48.843Z,4.79
2024-02-08T06:31:20.959Z,4.96
2024-02-08T06:34:08.292Z,5.05
2024-02-08T06:36:42.179Z,5.08
2024-02-08T06:39:25.259Z,5.11
2024-02-08T06:41:54.794Z,5.19
2024-02-08T06:44:38.887Z,5.32
2024-02-08T06:47:25.946Z,5.42
2024-02-08T06:50:13.810Z,5.58
2024-02-08T06:52:59.612Z,5.65
2024-02-08T06:55:45.506Z,5.79
2024-02-08T06:58:31.848Z,6.01
2024-02-08T07:01:18.233Z,6.06
2024-02-08T07:04:04.652Z,6.00
2024-02-08T07:06:52.332Z,5.94
2024-02-08T07:09:38.507Z,6.05
2024-02-08T07:12:25.429Z,6.12
2024-02-08T07:15:11.841Z,6.21
2024-02-08T07:17:58.444Z,6.31
2024-02-08T07:20:44.976Z,6.32
2024-02-08T07:23:31.274Z,6.48
2024-02-08T07:26:17.206Z,6.51
2024-02-08T07:29:03.548Z,6.49
2024-02-08T07:31:50.085Z,6.46
2024-02-08T07:34:36.258Z,6.45
2024-02-08T07:37:19.728Z,6.51
2024-02-08T07:40:03.026Z,6.61
2024-02-08T07:42:43.541Z,6.63
2024-02-08T07:45:16.234Z,6.51
2024-02-08T07:47:59.297Z,6.38
2024-02-08T07:50:37.400Z,6.56
2024-02-08T07:53:21.448Z,6.64
2024-02-08T07:56:22.375Z,6.91
2024-02-08T07:58:54.584Z,6.95
2024-02-08T08:01:22.611Z,7.16
2024-02-08T08:03:57.697Z,7.27
2024-02-08T08:06:25.734Z,7.35
2024-02-08T08:08:59.765Z,7.34
2024-02-08T08:11:27.394Z,7.10
2024-02-08T08:13:58.154Z,7.27
2024-02-08T08:16:32.613Z,7.47
2024-02-08T08:19:11.694Z,7.41
2024-02-08T08:22:14.642Z,7.42
2024-02-08T08:25:02.298Z,7.47
2024-02-08T08:27:34.425Z,7.51
2024-02-08T08:30:04.953Z,7.56
2024-02-08T08:32:33.964Z,7.70
2024-02-08T08:35:25.593Z,7.83
2024-02-08T08:38:12.178Z,7.83
2024-02-08T08:40:41.451Z,7.75
2024-02-08T08:43:21.690Z,7.64
2024-02-08T08:45:55.280Z,7.77
2024-02-08T08:48:26.431Z,7.98
2024-02-08T08:50:57.038Z,8.13
2024-02-08T08:53:29.063Z,8.06
2024-02-08T08:55:59.530Z,8.04
2024-02-08T08:58:40.705Z,7.97
2024-02-08T09:01:17.686Z,8.30
2024-02-08T09:04:08.745Z,8.45
2024-02-08T09:06:41.726Z,8.84
2024-02-08T09:09:28.447Z,8.86
2024-02-08T09:12:02.382Z,8.77
2024-02-08T09:14:32.433Z,8.72
2024-02-08T09:17:23.510Z,8.82
2024-02-08T09:19:49.675Z,9.03
2024-02-08T09:22:19.758Z,9.17
2024-02-08T09:24:47.820Z,9.27
2024-02-08T09:27:20.810Z,9.35
2024-02-08T09:30:10.291Z,9.27
2024-02-08T09:32:48.124Z,8.91
2024-02-08T09:35:18.077Z,9.54
2024-02-08T09:37:49.918Z,9.67
2024-02-08T09:40:23.985Z,9.49
2024-02-08T09:42:58.909Z,9.58
2024-02-08T09:45:34.657Z,9.73
2024-02-08T09:48:08.351Z,9.63
2024-02-08T09:50:51.624Z,9.61
2024-02-08T09:53:33.438Z,9.65
2024-02-08T09:56:17.091Z,9.83
2024-02-08T09:59:05.306Z,10.06
2024-02-08T10:01:46.521Z,10.17
2024-02-08T10:04:21.415Z,9.99
2024-02-08T10:06:57.404Z,9.90
2024-02-08T10:09:42.417Z,10.11
2024-02-08T10:12:21.947Z,10.14
2024-02-08T10:14:57.910Z,9.95
2024-02-08T10:17:43.098Z,9.92
2024-02-08T10:20:23.698Z,9.89
2024-02-08T10:23:10.652Z,9.69
2024-02-08T10:25:57.237Z,9.53
2024-02-08T10:28:26.234Z,9.40
2024-02-08T10:31:07.872Z,9.50
2024-02-08T10:33:39.854Z,9.45
2024-02-08T10:36:09.740Z,9.44
2024-02-08T10:38:56.552Z,9.29
2024-02-08T10:41:59.492Z,9.35
2024-02-08T10:44:36.213Z,9.46
2024-02-08T10:47:11.635Z,9.41
2024-02-08T10:49:53.380Z,9.34
2024-02-08T10:52:23.115Z,9.23
2024-02-08T10:54:57.337Z,9.19
2024-02-08T10:57:49.353Z,9.29
2024-02-08T11:00:38.744Z,9.29
2024-02-08T11:03:27.796Z,9.16
2024-02-08T11:06:02.833Z,8.93
2024-02-08T11:08:35.640Z,8.86
2024-02-08T11:11:13.901Z,8.88
2024-02-08T11:13:47.129Z,8.86
2024-02-08T11:16:37.498Z,9.12
2024-02-08T11:19:11.106Z,9.21
2024-02-08T11:21:46.023Z,9.21
2024-02-08T11:24:31.016Z,9.13
2024-02-08T11:27:04.351Z,8.92
2024-02-08T11:29:49.187Z,9.04
2024-02-08T11:32:20.429Z,9.02
2024-02-08T11:34:48.923Z,8.97
2024-02-08T11:37:20.839Z,9.00
2024-02-08T11:40:03.315Z,8.88
2024-02-08T11:42:38.738Z,8.81
2024-02-08T11:45:11.000Z,8.74
2024-02-08T11:47:43.616Z,8.79
2024-02-08T11:50:22.508Z,8.75
2024-02-08T11:52:59.834Z,8.62
2024-02-08T11:55:30.464Z,8.48
2024-02-08T11:57:59.155Z,8.53
2024-02-08T12:00:27.858Z,8.45
2024-02-08T12:03:00.201Z,8.36
2024-02-08T12:05:29.934Z,8.28
2024-02-08T12:08:11.799Z,8.20
2024-02-08T12:10:43.853Z,8.30
2024-02-08T12:13:15.661Z,8.50
2024-02-08T12:15:58.101Z,8.59
2024-02-08T12:18:30.774Z,8.34
2024-02-08T12:21:03.601Z,8.28
2024-02-08T12:23:36.834Z,8.29
2024-02-08T12:26:08.578Z,8.34
2024-02-08T12:28:43.648Z,8.15
2024-02-08T12:31:19.127Z,8.11
2024-02-08T12:33:54.097Z,8.12
2024-02-08T12:36:24.901Z,8.01
2024-02-08T12:38:57.750Z,7.95
2024-02-08T12:41:25.771Z,7.76
2024-02-08T12:43:54.188Z,7.81
2024-02-08T12:46:22.672Z,7.78
2024-02-08T12:48:51.464Z,7.86
2024-02-08T12:51:20.848Z,7.87
2024-02-08T12:53:50.977Z,7.92
2024-02-08T12:56:20.556Z,7.87
2024-02-08T12:58:48.519Z,8.01
2024-02-08T13:01:20.310Z,8.15
2024-02-08T13:03:50.927Z,8.25
2024-02-08T13:06:18.843Z,8.21
2024-02-08T13:08:47.235Z,8.24
2024-02-08T13:11:24.007Z,8.20
2024-02-08T13:13:51.879Z,8.13
2024-02-08T13:16:21.818Z,8.19
2024-02-08T13:19:01.596Z,8.12
2024-02-08T13:21:30.085Z,8.21
2024-02-08T13:23:58.290Z,8.16
2024-02-08T13:26:33.168Z,8.19
2024-02-08T13:29:05.564Z,8.22
2024-02-08T13:31:34.141Z,8.28
2024-02-08T13:34:03.215Z,8.26
2024-02-08T13:36:31.176Z,8.16
2024-02-08T13:38:58.719Z,8.11
2024-02-08T13:41:26.357Z,8.11
2024-02-08T13:43:54.396Z,8.06
2024-02-08T13:46:23.595Z,8.02
2024-02-08T13:48:51.266Z,7.95
2024-02-08T13:51:18.726Z,7.87
2024-02-08T13:53:46.966Z,7.82
2024-02-08T13:56:15.282Z,7.80
2024-02-08T13:58:43.212Z,7.81
2024-02-08T14:01:13.266Z,7.77
2024-02-08T14:03:41.599Z,7.76
2024-02-08T14:06:11.377Z,7.66
2024-02-08T14:08:44.616Z,7.74
2024-02-08T14:11:18.058Z,7.78
2024-02-08T14:13:46.175Z,7.82
2024-02-08T14:16:18.494Z,7.85
2024-02-08T14:18:56.101Z,7.83
2024-02-08T14:21:27.778Z,7.76
2024-02-08T14:24:02.914Z,7.67
2024-02-08T14:26:39.184Z,7.66
2024-02-08T14:29:09.024Z,7.63
2024-02-08T14:31:40.121Z,7.57
2024-02-08T14:34:11.198Z,7.49
2024-02-08T14:36:49.608Z,7.42
2024-02-08T14:39:30.735Z,7.35
2024-02-08T14:42:01.298Z,7.36
2024-02-08T14:44:43.545Z,7.28
2024-02-08T14:47:27.182Z,7.34
2024-02-08T14:50:01.429Z,7.49
2024-02-08T14:52:37.820Z,7.47
2024-02-08T14:55:22.294Z,7.50
2024-02-08T14:57:54.541Z,7.47
2024-02-08T15:00:32.387Z,7.44
2024-02-08T15:03:10.762Z,7.39
2024-02-08T15:05:49.627Z,7.39
2024-02-08T15:08:24.448Z,7.30
2024-02-08T15:11:10.861Z,7.33
2024-02-08T15:13:48.179Z,7.35
2024-02-08T15:16:24.088Z,7.27
2024-02-08T15:18:55.638Z,7.32
2024-02-08T15:21:27.364Z,7.41
2024-02-08T15:24:13.593Z,7.35
2024-02-08T15:27:03.389Z,7.46
2024-02-08T15:30:00.005Z,7.53
2024-02-08T15:32:42.100Z,7.54
2024-02-08T15:35:24.334Z,7.45
2024-02-08T15:38:12.114Z,7.35
2024-02-08T15:40:45.238Z,7.30
2024-02-08T15:43:16.844Z,7.29
2024-02-08T15:45:45.257Z,7.16
2024-02-08T15:48:15.778Z,7.33
2024-02-08T15:50:44.677Z,7.35
2024-02-08T15:53:21.556Z,7.33
2024-02-08T15:55:51.237Z,7.35
2024-02-08T15:58:27.888Z,7.29
2024-02-08T16:01:12.268Z,7.25
2024-02-08T16:04:01.982Z,7.23
2024-02-08T16:06:52.520Z,7.22
2024-02-08T16:09:28.017Z,7.19
2024-02-08T16:12:16.842Z,7.16
2024-02-08T16:14:45.439Z,7.02
2024-02-08T16:17:31.937Z,7.16
2024-02-08T16:20:07.826Z,7.17
2024-02-08T16:22:49.780Z,7.22
2024-02-08T16:25:21.132Z,7.17
2024-02-08T16:27:50.045Z,7.07
2024-02-08T16:30:30.034Z,7.06
2024-02-08T16:32:58.111Z,6.88
2024-02-08T16:35:42.528Z,7.03
2024-02-08T16:38:11.368Z,7.02
2024-02-08T16:40:53.397Z,6.93
2024-02-08T16:43:21.864Z,7.00
2024-02-08T16:45:51.610Z,7.00
2024-02-08T16:48:25.358Z,6.98
2024-02-08T16:50:58.765Z,6.94
2024-02-08T16:53:35.249Z,6.91
2024-02-08T16:56:08.545Z,6.91
2024-02-08T16:58:40.101Z,6.98
2024-02-08T17:01:20.611Z,6.97
2024-02-08T17:04:24.294Z,6.89
2024-02-08T17:07:04.857Z,6.82
2024-02-08T17:09:45.094Z,6.83
2024-02-08T17:12:21.521Z,6.72
2024-02-08T17:14:51.220Z,6.76
2024-02-08T17:17:36.969Z,6.70
2024-02-08T17:20:24.300Z,6.61
2024-02-08T17:23:06.581Z,6.53
2024-02-08T17:25:43.820Z,6.53
2024-02-08T17:28:22.969Z,6.40
2024-02-08T17:31:06.459Z,6.53
2024-02-08T17:33:42.242Z,6.29
2024-02-08T17:36:15.129Z,6.39
2024-02-08T17:38:44.323Z,6.42
2024-02-08T17:41:21.119Z,6.41
2024-02-08T17:43:57.154Z,6.33
2024-02-08T17:46:28.137Z,6.25
2024-02-08T17:48:56.649Z,6.15
2024-02-08T17:51:33.192Z,6.13
2024-02-08T17:54:08.519Z,5.98
2024-02-08T17:56:43.553Z,6.07
2024-02-08T17:59:17.859Z,6.02
2024-02-08T18:01:57.640Z,5.97
2024-02-08T18:04:27.111Z,5.91
2024-02-08T18:07:12.318Z,5.81
2024-02-08T18:09:55.538Z,5.65
2024-02-08T18:12:36.165Z,5.62
2024-02-08T18:15:14.131Z,5.56
2024-02-08T18:17:46.440Z,5.50
2024-02-08T18:20:19.082Z,5.45
2024-02-08T18:22:50.518Z,5.45
2024-02-08T18:25:32.274Z,5.13
2024-02-08T18:28:01.871Z,5.42
2024-02-08T18:30:31.269Z,5.38
2024-02-08T18:33:10.402Z,5.32
2024-02-08T18:35:38.856Z,5.07
2024-02-08T18:38:09.963Z,5.20
2024-02-08T18:40:40.169Z,4.99
2024-02-08T18:43:15.119Z,5.07
2024-02-08T18:45:50.593Z,5.04
2024-02-08T18:48:22.134Z,4.98
2024-02-08T18:50:59.455Z,4.89
2024-02-08T18:53:26.939Z,4.84
2024-02-08T18:56:01.441Z,4.83
2024-02-08T18:58:29.520Z,4.82
2024-02-08T19:00:57.418Z,4.79
2024-02-08T19:03:30.444Z,4.79
2024-02-08T19:06:01.569Z,4.79
2024-02-08T19:08:37.803Z,4.82
2024-02-08T19:11:08.020Z,4.93
2024-02-08T19:13:38.587Z,4.95
2024-02-08T19:16:17.081Z,4.92
2024-02-08T19:18:48.655Z,4.90
2024-02-08T19:21:29.748Z,4.83
2024-02-08T19:24:05.816Z,4.86
2024-02-08T19:26:34.241Z,4.84
2024-02-08T19:29:06.597Z,4.80
2024-02-08T19:31:38.745Z,4.63
2024-02-08T19:34:10.066Z,4.82
2024-02-08T19:36:42.242Z,4.82
2024-02-08T19:39:28.288Z,4.77
2024-02-08T19:41:57.166Z,4.70
2024-02-08T19:44:27.119Z,4.68
2024-02-08T19:47:08.097Z,4.69
2024-02-08T19:49:40.933Z,4.65
2024-02-08T19:52:16.911Z,4.73
2024-02-08T19:54:51.167Z,4.72
2024-02-08T19:57:22.884Z,4.62
2024-02-08T19:59:50.697Z,4.49
2024-02-08T20:02:35.992Z,4.50
2024-02-08T20:05:06.175Z,4.48
2024-02-08T20:07:41.102Z,4.56
2024-02-08T20:10:16.129Z,4.51
2024-02-08T20:12:50.444Z,4.39
2024-02-08T20:15:18.732Z,4.33
2024-02-08T20:17:51.675Z,4.28
2024-02-08T20:20:21.299Z,4.24
2024-02-08T20:22:53.741Z,4.18
2024-02-08T20:25:35.134Z,4.09
2024-02-08T20:28:07.938Z,4.10
2024-02-08T20:30:40.255Z,4.09
2024-02-08T20:33:14.285Z,4.05
2024-02-08T20:35:43.901Z,4.03
2024-02-08T20:38:16.476Z,3.96
2024-02-08T20:40:45.661Z,3.86
2024-02-08T20:43:19.376Z,3.99
2024-02-08T20:45:50.908Z,4.01
2024-02-08T20:48:20.811Z,4.02
2024-02-08T20:50:52.293Z,3.98
2024-02-08T20:53:20.441Z,3.88
2024-02-08T20:55:52.830Z,3.94
2024-02-08T20:58:21.013Z,3.97
2024-02-08T21:00:53.628Z,3.98
2024-02-08T21:03:28.214Z,4.06
2024-02-08T21:05:57.023Z,4.05
2024-02-08T21:08:26.583Z,4.08
2024-02-08T21:10:58.442Z,3.97
2024-02-08T21:13:26.978Z,4.14
2024-02-08T21:15:56.320Z,4.19
2024-02-08T21:18:24.321Z,4.24
2024-02-08T21:20:52.754Z,4.25
2024-02-08T21:23:20.689Z,4.41
2024-02-08T21:25:51.866Z,4.50
2024-02-08T21:28:19.929Z,4.59
2024-02-08T21:30:48.136Z,4.56
2024-02-08T21:33:16.145Z,4.52
2024-02-08T21:35:44.929Z,4.45
2024-02-08T21:38:12.609Z,4.59
2024-02-08T21:40:41.908Z,4.70
2024-02-08T21:43:15.992Z,4.77
2024-02-08T21:45:47.939Z,4.82
2024-02-08T21:48:16.524Z,4.89
2024-02-08T21:50:50.418Z,4.94
2024-02-08T21:53:19.238Z,4.96
2024-02-08T21:55:46.918Z,4.86
2024-02-08T21:58:16.937Z,4.65
2024-02-08T22:00:44.654Z,4.72
2024-02-08T22:03:16.030Z,4.67
2024-02-08T22:05:45.679Z,4.47
2024-02-08T22:08:16.625Z,4.49
2024-02-08T22:10:44.462Z,4.36
2024-02-08T22:13:12.668Z,4.28
2024-02-08T22:15:40.932Z,4.21
2024-02-08T22:18:09.680Z,4.10
2024-02-08T22:20:43.405Z,4.16
2024-02-08T22:23:11.515Z,4.17
2024-02-08T22:25:39.526Z,4.15
2024-02-08T22:28:10.950Z,4.09
2024-02-08T22:30:39.077Z,4.13
2024-02-08T22:33:08.337Z,4.14
2024-02-08T22:35:36.801Z,4.08
2024-02-08T22:38:07.733Z,4.00
2024-02-08T22:40:37.622Z,3.84
2024-02-08T22:43:06.860Z,3.86
2024-02-08T22:45:35.092Z,3.83
2024-02-08T22:48:04.902Z,3.81
2024-02-08T22:50:34.534Z,3.73
2024-02-08T22:53:03.375Z,3.73
2024-02-08T22:55:31.326Z,3.72
2024-02-08T22:58:02.129Z,3.65
2024-02-08T23:00:30.739Z,3.54
2024-02-08T23:03:08.919Z,3.56
2024-02-08T23:05:45.840Z,3.47
2024-02-08T23:08:17.335Z,3.52
2024-02-08T23:10:45.458Z,3.50
2024-02-08T23:13:14.926Z,3.36
2024-02-08T23:15:47.757Z,3.43
2024-02-08T23:18:20.672Z,3.45
2024-02-08T23:20:52.098Z,3.52
2024-02-08T23:23:21.484Z,3.54
2024-02-08T23:25:50.126Z,3.54
2024-02-08T23:28:21.817Z,3.40
2024-02-08T23:30:49.839Z,3.33
2024-02-08T23:33:19.796Z,3.24
2024-02-08T23:35:47.882Z,3.16
2024-02-08T23:38:20.485Z,3.16
2024-02-08T23:40:49.709Z,3.17
2024-02-08T23:43:18.136Z,3.22
2024-02-08T23:45:47.503Z,3.24
2024-02-08T23:48:15.588Z,3.34
2024-02-08T23:50:44.166Z,3.53
2024-02-08T23:53:12.184Z,3.53
2024-02-08T23:55:40.182Z,3.47
2024-02-08T23:58:12.668Z,3.40
